Time;durP1;ratioP1;P1;durP2;ratioP2;P2;SDS_P1;SDS_P2;PMS_P1;PMS_P2;Temp;Humidity;BMP_temperature;BMP_pressure;BME280_temperature;BME280_humidity;BME280_pressure;Samples;Min_cycle;Max_cycle;Signal;HPM_P1;HPM_P2
2023/04/14 00:01:49;;;;;;;;;;;;;;;6.15;70.81;95674.28;5055043;28;19921;-65
2023/04/14 00:04:17;;;;;;;;;;;;;;;6.06;71.46;95670.22;5054912;28;19921;-65
2023/04/14 00:06:44;;;;;;;;;;;;;;;6.04;71.62;95671.19;5055057;28;20007;-65
2023/04/14 00:09:13;;;;;;;;;;;;;;;6.00;71.58;95657.44;5054997;28;19927;-65
2023/04/14 00:11:40;;;;;;;;;;;;;;;5.98;71.58;95656.63;5054866;28;19921;-65
2023/04/14 00:14:08;;;;;;;;;;;;;;;5.96;72.93;95653.22;5054528;28;20055;-65
2023/04/14 00:16:35;;;;;;;;;;;;;;;6.00;73.25;95659.19;5053382;28;19921;-65
2023/04/14 00:19:02;;;;;;;;;;;;;;;6.10;73.50;95670.13;5054692;28;19925;-65
2023/04/14 00:21:29;;;;;;;;;;;;;;;6.11;72.78;95669.25;5054662;28;20016;-65
2023/04/14 00:23:56;;;;;;;;;;;;;;;6.10;72.62;95673.56;5054517;28;20023;-65
2023/04/14 00:26:25;;;;;;;;;;;;;;;6.09;72.26;95673.63;5054614;28;19921;-65
2023/04/14 00:28:52;;;;;;;;;;;;;;;6.13;71.98;95678.66;5054563;28;19976;-65
2023/04/14 00:31:19;;;;;;;;;;;;;;;6.14;72.02;95676.94;5054615;28;20286;-65
2023/04/14 00:33:46;;;;;;;;;;;;;;;6.06;71.85;95675.41;5054406;28;19971;-65
2023/04/14 00:36:13;;;;;;;;;;;;;;;6.13;71.91;95672.63;5054289;28;19921;-65
2023/04/14 00:38:39;;;;;;;;;;;;;;;6.11;72.00;95670.06;5054394;28;19932;-65
2023/04/14 00:41:06;;;;;;;;;;;;;;;6.03;72.59;95667.72;5053804;28;19921;-65
2023/04/14 00:43:34;;;;;;;;;;;;;;;5.96;72.75;95667.97;5054178;28;19921;-65
2023/04/14 00:46:05;;;;;;;;;;;;;;;5.89;73.27;95660.38;5054164;28;20015;-65
2023/04/14 00:48:34;;;;;;;;;;;;;;;5.96;72.96;95655.81;5052928;28;19920;-65
2023/04/14 00:51:02;;;;;;;;;;;;;;;6.02;73.02;95658.22;5054050;28;20302;-65
2023/04/14 00:53:29;;;;;;;;;;;;;;;6.09;73.37;95661.50;5054139;28;19920;-65
2023/04/14 00:55:56;;;;;;;;;;;;;;;6.10;72.83;95662.34;5053887;28;19939;-65
2023/04/14 00:58:22;;;;;;;;;;;;;;;6.14;72.23;95654.38;5053940;28;19974;-66
2023/04/14 01:00:54;;;;;;;;;;;;;;;6.16;72.32;95655.19;5053982;28;19970;-65
2023/04/14 01:03:21;;;;;;;;;;;;;;;6.21;72.60;95654.19;5053889;28;19927;-65
2023/04/14 01:05:48;;;;;;;;;;;;;;;6.24;72.71;95659.28;5053915;28;19925;-65
2023/04/14 01:08:15;;;;;;;;;;;;;;;6.21;72.41;95657.63;5053799;28;19928;-65
2023/04/14 01:10:49;;;;;;;;;;;;;;;6.04;72.18;95659.06;5053732;28;20351;-65
2023/04/14 01:13:21;;;;;;;;;;;;;;;6.00;73.08;95664.38;5053557;28;19928;-65
2023/04/14 01:15:51;;;;;;;;;;;;;;;5.97;73.17;95667.06;5053785;28;20011;-65
2023/04/14 01:18:22;;;;;;;;;;;;;;;5.99;73.13;95665.28;5053628;28;19925;-65
2023/04/14 01:20:50;;;;;;;;;;;;;;;6.01;72.94;95672.09;5053650;28;19974;-65
2023/04/14 01:23:21;;;;;;;;;;;;;;;6.00;73.11;95669.56;5053485;28;19921;-65
2023/04/14 01:26:04;;;;;;;;;;;;;;;5.98;73.32;95673.94;5053494;28;19925;-65
2023/04/14 01:28:43;;;;;;;;;;;;;;;6.00;72.78;95677.34;5040493;28;19974;-65
2023/04/14 01:31:23;;;;;;;;;;;;;;;6.02;72.88;95670.38;5053552;28;19921;-65
2023/04/14 01:33:55;;;;;;;;;;;;;;;6.03;72.91;95672.06;5053590;28;19927;-65
2023/04/14 01:36:26;;;;;;;;;;;;;;;6.06;72.79;95672.81;5053363;28;20298;-65
2023/04/14 01:38:54;;;;;;;;;;;;;;;6.03;73.03;95678.13;5053416;28;19928;-65
2023/04/14 01:41:22;;;;;;;;;;;;;;;5.97;72.77;95680.91;5053348;28;19921;-65
2023/04/14 01:43:53;;;;;;;;;;;;;;;5.93;73.43;95681.91;5053348;28;19925;-65
2023/04/14 01:46:21;;;;;;;;;;;;;;;5.93;73.27;95684.50;5053309;28;19974;-65
2023/04/14 01:48:50;;;;;;;;;;;;;;;5.87;73.52;95676.94;5053217;28;19929;-65
2023/04/14 01:51:18;;;;;;;;;;;;;;;5.84;73.43;95667.47;5053205;28;19929;-65
2023/04/14 01:53:48;;;;;;;;;;;;;;;5.84;73.81;95661.44;5057078;28;19974;-65
2023/04/14 01:56:16;;;;;;;;;;;;;;;5.84;73.76;95664.03;5057318;28;19947;-65
2023/04/14 01:58:45;;;;;;;;;;;;;;;5.82;74.20;95664.91;5057379;28;20382;-65
2023/04/14 02:01:12;;;;;;;;;;;;;;;5.78;74.84;95654.72;5057245;28;20421;-65
2023/04/14 02:03:40;;;;;;;;;;;;;;;5.76;74.55;95656.50;5057175;28;19944;-65
2023/04/14 02:06:14;;;;;;;;;;;;;;;5.75;74.52;95660.84;5057176;28;20007;-65
2023/04/14 02:08:42;;;;;;;;;;;;;;;5.71;74.79;95660.97;5057177;28;20313;-65
2023/04/14 02:11:10;;;;;;;;;;;;;;;5.73;74.79;95648.81;5057136;28;20374;-65
2023/04/14 02:13:40;;;;;;;;;;;;;;;5.68;74.67;95657.59;5056650;28;20362;-65
2023/04/14 02:16:10;;;;;;;;;;;;;;;5.67;74.90;95655.06;5056938;28;19921;-65
2023/04/14 02:18:40;;;;;;;;;;;;;;;5.64;74.93;95653.44;5057280;28;19921;-65
2023/04/14 02:21:08;;;;;;;;;;;;;;;5.62;75.07;95654.34;5056932;28;20007;-65
2023/04/14 02:23:40;;;;;;;;;;;;;;;5.63;74.94;95650.88;5057086;28;19979;-65
2023/04/14 02:26:08;;;;;;;;;;;;;;;5.63;74.67;95645.69;5056899;28;19920;-65
2023/04/14 02:28:38;;;;;;;;;;;;;;;5.62;74.81;95646.56;5056993;28;20382;-65
2023/04/14 02:31:07;;;;;;;;;;;;;;;5.53;74.59;95647.72;5056849;28;19921;-65
2023/04/14 02:33:36;;;;;;;;;;;;;;;5.46;75.07;95646.22;5056675;28;20412;-65
2023/04/14 02:36:07;;;;;;;;;;;;;;;5.51;75.68;95649.53;5056654;28;19928;-65
2023/04/14 02:38:35;;;;;;;;;;;;;;;5.58;75.75;95653.63;5056590;28;19928;-65
2023/04/14 02:41:07;;;;;;;;;;;;;;;5.57;76.42;95650.16;5056639;28;19920;-65
2023/04/14 02:43:37;;;;;;;;;;;;;;;5.60;76.46;95649.22;5056450;28;19947;-65
2023/04/14 02:46:07;;;;;;;;;;;;;;;5.74;76.48;95645.31;5056381;28;19921;-65
2023/04/14 02:48:34;;;;;;;;;;;;;;;5.78;75.94;95639.97;5056327;28;19921;-65
2023/04/14 02:51:02;;;;;;;;;;;;;;;5.75;75.59;95634.06;5056412;28;19920;-65
2023/04/14 02:53:29;;;;;;;;;;;;;;;5.71;75.61;95635.88;5056363;28;19921;-65
2023/04/14 02:55:58;;;;;;;;;;;;;;;5.74;75.58;95648.78;5056262;28;19925;-65
2023/04/14 02:58:28;;;;;;;;;;;;;;;5.76;75.52;95648.72;5056312;28;20015;-65
2023/04/14 03:00:56;;;;;;;;;;;;;;;5.76;75.26;95652.19;5056198;28;19931;-65
2023/04/14 03:03:23;;;;;;;;;;;;;;;5.81;75.34;95662.41;5055919;28;19924;-65
2023/04/14 03:05:52;;;;;;;;;;;;;;;5.83;74.92;95663.19;5056138;28;19921;-65
2023/04/14 03:08:20;;;;;;;;;;;;;;;5.73;75.22;95665.25;5056137;28;20449;-65
2023/04/14 03:10:48;;;;;;;;;;;;;;;5.72;76.03;95670.50;5056036;28;19927;-65
2023/04/14 03:13:16;;;;;;;;;;;;;;;5.74;75.79;95660.88;5055785;28;19964;-65
2023/04/14 03:15:45;;;;;;;;;;;;;;;5.68;75.66;95668.00;5055831;28;20302;-66
2023/04/14 03:18:12;;;;;;;;;;;;;;;5.57;76.13;95668.31;5055913;28;20198;-65
2023/04/14 03:20:42;;;;;;;;;;;;;;;5.55;76.09;95664.94;5055736;28;19921;-65
2023/04/14 03:23:11;;;;;;;;;;;;;;;5.47;76.28;95666.06;5055699;28;19943;-65
2023/04/14 03:25:40;;;;;;;;;;;;;;;5.42;76.75;95664.47;5055702;28;19921;-65
2023/04/14 03:28:11;;;;;;;;;;;;;;;5.42;76.99;95667.06;5055715;28;19927;-65
2023/04/14 03:30:42;;;;;;;;;;;;;;;5.46;76.65;95666.97;5055613;28;19990;-65
2023/04/14 03:33:12;;;;;;;;;;;;;;;5.47;76.29;95666.06;5055653;28;19963;-65
2023/04/14 03:35:39;;;;;;;;;;;;;;;5.45;76.13;95671.34;5055484;28;19924;-65
2023/04/14 03:38:09;;;;;;;;;;;;;;;5.46;76.14;95673.03;5055467;28;19928;-65
2023/04/14 03:40:43;;;;;;;;;;;;;;;5.43;76.01;95671.38;5055584;28;19928;-65
2023/04/14 03:43:11;;;;;;;;;;;;;;;5.44;76.43;95667.03;5055371;28;19921;-65
2023/04/14 03:45:42;;;;;;;;;;;;;;;5.47;76.47;95669.53;5055307;28;19920;-65
2023/04/14 03:48:17;;;;;;;;;;;;;;;5.49;76.25;95669.47;5053570;28;19920;-65
2023/04/14 03:50:50;;;;;;;;;;;;;;;5.47;76.21;95677.31;5055301;28;19927;-65
2023/04/14 03:53:22;;;;;;;;;;;;;;;5.35;76.46;95677.69;5055524;28;19921;-65
2023/04/14 03:55:55;;;;;;;;;;;;;;;5.31;76.76;95676.94;5055020;28;19928;-65
2023/04/14 03:58:22;;;;;;;;;;;;;;;5.32;76.89;95678.63;5055277;28;19936;-65
2023/04/14 04:00:52;;;;;;;;;;;;;;;5.29;76.59;95674.38;5054958;28;19964;-65
2023/04/14 04:03:23;;;;;;;;;;;;;;;5.29;77.09;95674.38;5055007;28;19920;-65
2023/04/14 04:05:50;;;;;;;;;;;;;;;5.26;77.20;95669.28;5055095;28;20336;-65
2023/04/14 04:08:18;;;;;;;;;;;;;;;5.27;77.12;95667.56;5054996;28;20452;-65
2023/04/14 04:10:47;;;;;;;;;;;;;;;5.28;76.71;95677.03;5054838;28;20015;-65
2023/04/14 04:13:16;;;;;;;;;;;;;;;5.28;76.93;95671.84;5054494;28;20015;-65
2023/04/14 04:15:44;;;;;;;;;;;;;;;5.33;76.98;95677.75;5053959;28;19920;-65
2023/04/14 04:18:11;;;;;;;;;;;;;;;5.33;76.82;95672.56;5054700;28;19943;-65
2023/04/14 04:20:41;;;;;;;;;;;;;;;5.36;77.50;95671.59;5054768;28;20355;-65
2023/04/14 04:23:08;;;;;;;;;;;;;;;5.44;77.29;95672.22;5054701;28;19921;-65
2023/04/14 04:25:36;;;;;;;;;;;;;;;5.48;76.64;95667.78;5054543;28;19976;-65
2023/04/14 04:28:04;;;;;;;;;;;;;;;5.55;76.82;95677.06;5054433;28;19931;-65
2023/04/14 04:30:31;;;;;;;;;;;;;;;5.68;76.90;95670.59;5054483;28;19921;-65
2023/04/14 04:32:58;;;;;;;;;;;;;;;5.76;76.63;95672.94;5054372;28;19920;-65
2023/04/14 04:35:26;;;;;;;;;;;;;;;5.86;76.25;95677.81;5054363;28;20382;-65
2023/04/14 04:37:55;;;;;;;;;;;;;;;5.93;75.68;95680.16;5054253;28;20294;-65
2023/04/14 04:40:22;;;;;;;;;;;;;;;6.09;75.86;95682.28;5054271;28;19921;-65
2023/04/14 04:42:49;;;;;;;;;;;;;;;6.22;75.60;95679.25;5054236;28;19921;-65
2023/04/14 04:45:24;;;;;;;;;;;;;;;6.39;75.64;95686.47;5054168;28;20020;-65
2023/04/14 04:47:52;;;;;;;;;;;;;;;6.54;75.18;95675.50;5054339;28;19967;-65
2023/04/14 04:50:22;;;;;;;;;;;;;;;6.70;74.65;95682.75;5054206;28;19974;-65
2023/04/14 04:52:49;;;;;;;;;;;;;;;6.81;74.73;95680.63;5054077;28;20370;-65
2023/04/14 04:55:18;;;;;;;;;;;;;;;6.98;74.31;95688.72;5054095;28;19921;-65
2023/04/14 04:57:45;;;;;;;;;;;;;;;7.19;73.79;95694.84;5053931;28;19925;-65
2023/04/14 05:00:13;;;;;;;;;;;;;;;7.49;72.94;95691.13;5054211;28;19928;-65
2023/04/14 05:02:49;;;;;;;;;;;;;;;7.92;72.91;95693.78;5053914;28;20286;-65
2023/04/14 05:05:16;;;;;;;;;;;;;;;8.55;70.30;95686.84;5053859;28;20358;-65
2023/04/14 05:07:45;;;;;;;;;;;;;;;9.19;66.37;95687.50;5053833;28;19920;-65
2023/04/14 05:10:12;;;;;;;;;;;;;;;9.96;65.44;95692.56;5054006;28;19972;-64
2023/04/14 05:12:40;;;;;;;;;;;;;;;10.74;63.76;95680.00;5053950;28;19924;-65
2023/04/14 05:15:08;;;;;;;;;;;;;;;11.50;61.97;95678.56;5053345;28;19928;-65
2023/04/14 05:17:37;;;;;;;;;;;;;;;12.33;59.24;95671.34;5053631;28;20366;-65
2023/04/14 05:20:04;;;;;;;;;;;;;;;13.12;55.46;95675.41;5054152;28;20386;-64
2023/04/14 05:22:32;;;;;;;;;;;;;;;13.83;55.00;95672.75;5053675;28;20382;-64
2023/04/14 05:24:59;;;;;;;;;;;;;;;14.47;53.06;95673.84;5053723;28;20015;-64
2023/04/14 05:27:27;;;;;;;;;;;;;;;14.95;51.67;95676.81;5053549;28;19920;-64
2023/04/14 05:29:56;;;;;;;;;;;;;;;15.50;50.10;95685.25;5053539;28;19974;-64
2023/04/14 05:32:23;;;;;;;;;;;;;;;15.69;47.75;95683.94;5053599;28;19925;-64
2023/04/14 05:34:50;;;;;;;;;;;;;;;16.06;46.72;95693.63;5053526;28;20367;-64
2023/04/14 05:37:17;;;;;;;;;;;;;;;16.39;46.17;95685.94;5053354;28;19924;-65
2023/04/14 05:39:44;;;;;;;;;;;;;;;16.74;46.03;95697.41;5053445;28;19951;-65
2023/04/14 05:42:11;;;;;;;;;;;;;;;16.89;46.48;95695.41;5053382;28;19927;-64
2023/04/14 05:44:38;;;;;;;;;;;;;;;17.25;44.57;95684.75;5053504;28;20007;-64
2023/04/14 05:47:06;;;;;;;;;;;;;;;17.54;43.48;95681.59;5053409;28;20382;-65
2023/04/14 05:49:33;;;;;;;;;;;;;;;17.82;43.37;95684.66;5053376;28;20405;-65
2023/04/14 05:52:00;;;;;;;;;;;;;;;18.25;42.64;95680.34;5053376;28;19921;-65
2023/04/14 05:54:27;;;;;;;;;;;;;;;18.60;41.20;95682.81;5053283;28;19921;-65
2023/04/14 05:56:55;;;;;;;;;;;;;;;18.81;42.91;95674.84;5053306;28;19925;-64
2023/04/14 05:59:22;;;;;;;;;;;;;;;18.97;42.54;95661.13;5053291;28;19943;-65
2023/04/14 06:01:49;;;;;;;;;;;;;;;18.84;41.35;95661.34;5053465;28;20290;-65
2023/04/14 06:04:17;;;;;;;;;;;;;;;18.77;42.92;95649.59;5053189;28;19921;-64
2023/04/14 06:06:44;;;;;;;;;;;;;;;18.84;40.99;95650.72;5053319;28;19925;-65
2023/04/14 06:09:11;;;;;;;;;;;;;;;18.94;40.59;95654.28;5053256;28;19948;-65
2023/04/14 06:11:39;;;;;;;;;;;;;;;18.47;41.02;95661.81;5053093;28;19920;-64
2023/04/14 06:14:06;;;;;;;;;;;;;;;18.29;41.66;95657.09;5052943;28;19920;-64
2023/04/14 06:16:33;;;;;;;;;;;;;;;17.96;42.87;95651.78;5052960;28;19935;-66
2023/04/14 06:18:59;;;;;;;;;;;;;;;17.45;43.58;95650.63;5053105;28;20008;-66
2023/04/14 06:21:28;;;;;;;;;;;;;;;17.40;44.44;95645.72;5053128;28;19924;-64
2023/04/14 06:23:55;;;;;;;;;;;;;;;17.40;44.25;95638.59;5053056;28;20290;-64
2023/04/14 06:26:24;;;;;;;;;;;;;;;17.35;45.08;95642.56;5053152;28;19974;-64
2023/04/14 06:28:52;;;;;;;;;;;;;;;17.51;45.26;95637.75;5052942;28;20363;-65
2023/04/14 06:31:19;;;;;;;;;;;;;;;17.99;44.14;95648.06;5052945;28;20293;-65
2023/04/14 06:33:47;;;;;;;;;;;;;;;18.35;42.18;95651.28;5052994;28;20422;-65
2023/04/14 06:36:16;;;;;;;;;;;;;;;18.27;42.79;95651.94;5052955;28;19928;-65
2023/04/14 06:38:45;;;;;;;;;;;;;;;17.76;43.60;95643.69;5054726;28;19920;-64
2023/04/14 06:41:12;;;;;;;;;;;;;;;17.37;44.99;95640.66;5056633;28;19921;-65
2023/04/14 06:43:41;;;;;;;;;;;;;;;16.80;46.56;95631.75;5056652;28;19921;-64
2023/04/14 06:46:09;;;;;;;;;;;;;;;16.70;47.07;95644.00;5056448;28;19925;-65
2023/04/14 06:48:36;;;;;;;;;;;;;;;16.93;47.89;95647.50;5056560;28;19942;-66
2023/04/14 06:51:04;;;;;;;;;;;;;;;16.87;48.83;95634.78;5056402;28;20363;-65
2023/04/14 06:53:31;;;;;;;;;;;;;;;16.26;49.31;95644.63;5056374;28;20370;-64
2023/04/14 06:56:00;;;;;;;;;;;;;;;15.89;49.99;95648.19;5056612;28;19967;-65
2023/04/14 06:58:27;;;;;;;;;;;;;;;15.73;51.31;95656.38;5056261;28;19927;-64
2023/04/14 07:00:57;;;;;;;;;;;;;;;15.58;49.28;95650.44;5056183;28;19920;-64
2023/04/14 07:03:25;;;;;;;;;;;;;;;15.55;50.21;95653.28;5056199;28;19947;-64
2023/04/14 07:05:52;;;;;;;;;;;;;;;15.66;50.62;95645.44;5056149;28;19967;-64
2023/04/14 07:08:21;;;;;;;;;;;;;;;15.61;51.99;95644.94;5055982;28;19943;-64
2023/04/14 07:10:49;;;;;;;;;;;;;;;15.44;51.95;95646.16;5056016;28;19964;-65
2023/04/14 07:13:20;;;;;;;;;;;;;;;15.33;53.17;95641.69;5055815;28;20004;-64
2023/04/14 07:15:48;;;;;;;;;;;;;;;15.24;52.81;95651.09;5056069;28;20267;-65
2023/04/14 07:18:14;;;;;;;;;;;;;;;15.14;53.26;95650.88;5055804;28;20408;-64
2023/04/14 07:20:42;;;;;;;;;;;;;;;15.37;53.96;95643.13;5055905;28;20321;-65
2023/04/14 07:23:09;;;;;;;;;;;;;;;15.84;51.43;95649.50;5055814;28;19921;-65
2023/04/14 07:25:36;;;;;;;;;;;;;;;16.28;51.91;95642.72;5055765;28;19921;-65
2023/04/14 07:28:03;;;;;;;;;;;;;;;16.72;51.24;95641.25;5055718;28;19971;-65
2023/04/14 07:30:32;;;;;;;;;;;;;;;16.99;51.94;95630.34;5055689;28;20383;-65
2023/04/14 07:32:58;;;;;;;;;;;;;;;17.36;52.22;95631.88;5055648;28;19921;-65
2023/04/14 07:35:25;;;;;;;;;;;;;;;17.79;52.81;95640.78;5055519;28;19963;-65
2023/04/14 07:37:52;;;;;;;;;;;;;;;18.29;49.94;95646.50;5055322;28;19932;-65
2023/04/14 07:40:19;;;;;;;;;;;;;;;18.51;48.83;95647.38;5055552;28;20298;-65
2023/04/14 07:42:47;;;;;;;;;;;;;;;18.65;48.51;95636.44;5055507;28;20287;-65
2023/04/14 07:45:13;;;;;;;;;;;;;;;18.90;49.09;95636.97;5055484;28;19921;-65
2023/04/14 07:47:42;;;;;;;;;;;;;;;19.18;48.44;95647.84;5055416;28;19921;-65
2023/04/14 07:50:09;;;;;;;;;;;;;;;19.36;47.63;95628.69;5054339;28;19968;-65
2023/04/14 07:52:36;;;;;;;;;;;;;;;19.54;48.18;95634.13;5055293;28;19920;-66
2023/04/14 07:55:03;;;;;;;;;;;;;;;19.78;47.70;95630.25;5055356;28;19975;-65
2023/04/14 07:57:30;;;;;;;;;;;;;;;20.27;46.06;95621.50;5055019;28;19975;-65
2023/04/14 07:59:57;;;;;;;;;;;;;;;20.32;45.85;95624.56;5055116;28;19920;-64
2023/04/14 08:02:24;;;;;;;;;;;;;;;20.29;47.26;95622.19;5055017;28;20329;-65
2023/04/14 08:04:52;;;;;;;;;;;;;;;20.35;46.49;95635.88;5055015;28;19920;-64
2023/04/14 08:07:19;;;;;;;;;;;;;;;20.32;46.88;95624.56;5054982;28;19974;-65
2023/04/14 08:09:46;;;;;;;;;;;;;;;20.12;46.91;95623.75;5054975;28;20012;-66
2023/04/14 08:12:15;;;;;;;;;;;;;;;20.36;48.36;95625.13;5054929;28;20015;-66
2023/04/14 08:14:42;;;;;;;;;;;;;;;19.69;46.91;95631.09;5054519;28;19928;-65
2023/04/14 08:17:09;;;;;;;;;;;;;;;19.15;48.58;95623.44;5054633;28;19967;-65
2023/04/14 09:43:47;;;;;;;;;;;;;;;15.01;67.84;95626.34;5075304;22;20379;-65
2023/04/14 09:46:14;;;;;;;;;;;;;;;14.96;68.46;95639.84;5013167;28;19929;-65
2023/04/14 09:48:54;;;;;;;;;;;;;;;14.97;69.15;95617.84;5013707;28;20395;-65
2023/04/14 09:51:25;;;;;;;;;;;;;;;15.02;68.20;95625.44;5013680;28;19943;-65
2023/04/14 09:53:52;;;;;;;;;;;;;;;15.11;68.59;95616.03;5013600;28;20300;-65
2023/04/14 09:56:20;;;;;;;;;;;;;;;15.18;67.56;95622.53;5012740;28;19960;-65
2023/04/14 09:58:49;;;;;;;;;;;;;;;15.24;67.53;95626.53;5013248;28;19976;-65
2023/04/14 10:01:16;;;;;;;;;;;;;;;15.29;67.01;95629.66;5013574;28;20020;-65
2023/04/14 10:03:44;;;;;;;;;;;;;;;15.20;66.73;95625.88;5013579;28;20000;-65
2023/04/14 10:06:15;;;;;;;;;;;;;;;15.27;67.06;95636.84;5013479;28;19928;-66
2023/04/14 10:08:43;;;;;;;;;;;;;;;15.31;66.92;95619.84;5013509;28;20276;-65
2023/04/14 10:11:14;;;;;;;;;;;;;;;15.37;66.74;95619.41;5013214;28;19956;-65
2023/04/14 10:13:41;;;;;;;;;;;;;;;15.52;66.93;95621.88;5015223;28;19929;-65
2023/04/14 10:16:10;;;;;;;;;;;;;;;15.60;66.10;95624.81;5017377;28;19921;-66
2023/04/14 10:18:38;;;;;;;;;;;;;;;15.66;65.44;95628.81;5017043;28;19921;-66
2023/04/14 10:21:06;;;;;;;;;;;;;;;15.82;67.04;95622.38;5017051;28;20299;-66
2023/04/14 10:23:34;;;;;;;;;;;;;;;16.10;64.05;95626.47;5017262;28;19968;-66
2023/04/14 10:26:01;;;;;;;;;;;;;;;16.29;63.14;95617.19;5017097;28;19983;-65
2023/04/14 10:28:29;;;;;;;;;;;;;;;16.51;63.88;95607.63;5017025;28;19921;-65
2023/04/14 10:30:58;;;;;;;;;;;;;;;16.71;61.62;95621.09;5017020;28;19972;-66
2023/04/14 10:33:27;;;;;;;;;;;;;;;16.89;62.33;95624.09;5016779;28;19928;-66
2023/04/14 10:35:57;;;;;;;;;;;;;;;17.14;59.85;95622.19;5017075;28;19921;-65
2023/04/14 10:38:37;;;;;;;;;;;;;;;17.46;60.79;95620.59;5016643;28;20034;-65
2023/04/14 10:41:05;;;;;;;;;;;;;;;17.85;58.85;95626.22;5016991;28;19921;-65
2023/04/14 10:43:34;;;;;;;;;;;;;;;18.18;56.47;95626.22;5016253;28;19921;-65
2023/04/14 10:46:01;;;;;;;;;;;;;;;18.34;56.66;95617.84;5016921;28;19921;-65
2023/04/14 10:48:32;;;;;;;;;;;;;;;18.29;55.11;95618.25;5016698;28;19921;-66
2023/04/14 10:50:59;;;;;;;;;;;;;;;18.19;55.92;95612.03;5016533;28;20413;-65
2023/04/14 10:53:27;;;;;;;;;;;;;;;17.97;56.48;95605.84;5016707;28;19925;-65
2023/04/14 10:55:56;;;;;;;;;;;;;;;17.98;56.18;95609.34;5016631;28;20287;-65
2023/04/14 10:58:28;;;;;;;;;;;;;;;17.81;55.78;95611.56;5016512;28;19922;-66
2023/04/14 11:00:56;;;;;;;;;;;;;;;17.58;56.57;95602.88;5016476;28;19968;-65
2023/04/14 11:03:23;;;;;;;;;;;;;;;17.63;56.82;95608.63;5016497;28;19929;-66
2023/04/14 11:06:01;;;;;;;;;;;;;;;17.68;56.38;95603.81;5016149;28;20434;-66
2023/04/14 11:08:35;;;;;;;;;;;;;;;17.60;56.67;95628.22;5016192;28;20342;-65
2023/04/14 11:11:02;;;;;;;;;;;;;;;17.61;56.58;95626.44;5016053;28;19967;-66
2023/04/14 11:13:29;;;;;;;;;;;;;;;17.70;56.32;95627.50;5016296;28;20012;-66
2023/04/14 11:15:59;;;;;;;;;;;;;;;17.73;55.68;95614.84;5016400;28;19955;-65
2023/04/14 11:18:34;;;;;;;;;;;;;;;17.85;55.22;95626.22;5016198;28;19984;-66
2023/04/14 11:21:07;;;;;;;;;;;;;;;17.96;56.23;95622.69;5016119;28;19922;-65
2023/04/14 11:23:35;;;;;;;;;;;;;;;18.02;55.61;95606.31;5014534;28;19922;-65
2023/04/14 11:26:02;;;;;;;;;;;;;;;18.08;54.95;95623.47;5016229;28;19929;-65
2023/04/14 11:28:31;;;;;;;;;;;;;;;18.18;54.50;95623.56;5016107;28;19929;-65
2023/04/14 11:30:58;;;;;;;;;;;;;;;18.31;54.27;95615.47;5014627;28;19975;-65
2023/04/14 11:33:28;;;;;;;;;;;;;;;18.43;54.70;95613.59;5015856;28;19922;-66
2023/04/14 11:35:55;;;;;;;;;;;;;;;18.48;53.40;95597.31;5015865;28;19948;-65
2023/04/14 11:38:24;;;;;;;;;;;;;;;18.72;53.26;95593.53;5015133;28;19921;-65
2023/04/14 11:40:51;;;;;;;;;;;;;;;18.96;53.06;95579.97;5015497;28;19979;-65
2023/04/14 11:43:19;;;;;;;;;;;;;;;19.15;50.81;95565.13;5015509;28;20008;-66
2023/04/14 11:48:16;;;;;;;9.93;3.60;;;;;;;19.16;51.97;95554.41;5152196;27;20366;-68
2023/04/14 11:50:44;;;;;;;8.05;2.72;;;;;;;19.15;49.64;95565.94;5152039;27;20072;-67
2023/04/14 11:53:17;;;;;;;5.63;2.92;;;;;;;18.99;50.54;95547.91;5139813;27;20070;-67
2023/04/14 11:55:46;;;;;;;8.77;2.65;;;;;;;18.94;50.67;95545.66;5050044;28;20050;-65
2023/04/14 11:58:16;;;;;;;12.43;2.90;;;;;;;19.00;51.63;95549.59;5131334;27;20055;-66
2023/04/14 12:00:59;;;;;;;8.20;3.17;;;;;;;19.11;50.32;95550.47;5118018;27;20043;-65
2023/04/14 12:03:29;;;;;;;9.57;3.22;;;;;;;19.19;50.63;95543.53;5110690;28;20094;-65
2023/04/14 12:05:58;;;;;;;6.27;3.03;;;;;;;19.21;50.83;95554.00;5110495;28;20052;-67
2023/04/14 12:08:26;;;;;;;8.07;3.40;;;;;;;19.27;51.62;95531.41;5110444;28;20355;-66
2023/04/14 12:10:56;;;;;;;17.48;3.72;;;;;;;19.26;50.27;95540.34;5110386;28;20097;-65
2023/04/14 12:13:25;;;;;;;8.98;3.22;;;;;;;19.01;50.91;95530.06;5110396;28;20419;-66
2023/04/14 12:15:54;;;;;;;15.07;3.10;;;;;;;19.02;50.80;95531.72;5110531;28;20043;-65
2023/04/14 12:18:23;;;;;;;16.10;3.30;;;;;;;19.11;52.22;95524.81;5110465;28;20127;-67
2023/04/14 12:20:56;;;;;;;6.00;3.38;;;;;;;19.28;51.44;95506.56;5110037;28;20052;-65
2023/04/14 12:23:24;;;;;;;5.82;3.20;;;;;;;19.13;51.49;95511.41;5081804;27;20058;-66
2023/04/14 12:25:54;;;;;;;10.82;3.90;;;;;;;19.13;52.25;95508.75;5106381;28;20039;-67
2023/04/14 12:28:28;;;;;;;7.10;3.63;;;;;;;19.08;51.78;95516.31;5109586;28;20047;-67
2023/04/14 12:30:58;;;;;;;11.02;4.05;;;;;;;18.95;52.65;95517.34;5109299;28;20408;-66
2023/04/14 12:33:27;;;;;;;11.27;3.30;;;;;;;18.92;52.27;95523.78;5107269;28;20047;-65
2023/04/14 12:36:03;;;;;;;10.10;3.15;;;;;;;19.00;52.55;95525.75;5109580;28;20485;-67
2023/04/14 12:38:32;;;;;;;10.82;3.17;;;;;;;18.86;53.52;95520.81;5108041;28;20047;-66
2023/04/14 12:41:00;;;;;;;9.48;3.25;;;;;;;18.93;52.75;95537.81;5109130;28;20052;-67
2023/04/14 12:43:30;;;;;;;9.50;3.20;;;;;;;18.95;53.15;95530.59;5108390;28;20047;-67
2023/04/14 12:45:59;;;;;;;9.48;3.42;;;;;;;18.92;53.48;95533.50;5109046;28;20039;-67
2023/04/14 12:48:41;;;;;;;14.13;3.92;;;;;;;19.03;53.02;95524.63;5106812;28;20402;-67
2023/04/14 12:51:12;;;;;;;15.20;3.53;;;;;;;19.06;51.83;95533.13;5107241;28;20043;-67
2023/04/14 12:53:40;;;;;;;12.13;4.05;;;;;;;19.09;52.48;95523.28;5109009;28;20105;-65
2023/04/14 12:56:10;;;;;;;12.90;4.20;;;;;;;18.92;52.71;95523.78;5109819;28;20097;-66
2023/04/14 12:58:39;;;;;;;9.50;3.90;;;;;;;19.10;51.63;95527.59;5101109;28;20541;-67
2023/04/14 13:01:08;;;;;;;14.95;3.88;;;;;;;19.07;52.92;95520.72;5095807;28;20421;-67
2023/04/14 13:03:40;;;;;;;13.98;4.00;;;;;;;19.15;52.31;95534.16;5096049;28;20405;-65
2023/04/14 13:06:10;;;;;;;18.05;4.82;;;;;;;19.26;52.75;95527.91;5095918;28;20044;-67
2023/04/14 13:08:38;;;;;;;11.85;3.45;;;;;;;19.26;51.54;95521.78;5095911;28;20055;-66
2023/04/14 13:11:06;;;;;;;15.05;3.90;;;;;;;19.32;51.30;95534.47;5095422;28;20079;-66
2023/04/14 13:13:35;;;;;;;15.80;3.90;;;;;;;19.31;50.81;95538.09;5095764;28;20051;-66
2023/04/14 13:16:04;;;;;;;9.38;4.07;;;;;;;19.21;50.20;95524.00;5095798;28;20054;-65
2023/04/14 13:18:32;;;;;;;21.20;3.85;;;;;;;19.21;51.26;95513.38;5095308;28;20106;-66
2023/04/14 13:21:01;;;;;;;15.25;4.10;;;;;;;19.21;51.08;95495.69;5095688;28;20048;-66
2023/04/14 13:23:30;;;;;;;10.45;3.30;;;;;;;19.27;50.65;95495.09;5095602;28;20040;-67
2023/04/14 13:25:58;;;;;;;19.83;4.07;;;;;;;19.37;51.02;95492.47;5095634;28;20048;-66
2023/04/14 13:28:26;;;;;;;12.23;3.90;;;;;;;19.32;50.83;95490.25;5094539;28;20048;-66
2023/04/14 13:30:55;;;;;;;16.33;4.03;;;;;;;19.09;50.56;95492.31;5095268;28;20048;-66
2023/04/14 13:33:23;;;;;;;16.70;3.88;;;;;;;19.14;50.15;95489.25;5095500;28;20048;-66
2023/04/14 13:35:54;;;;;;;13.35;3.88;;;;;;;19.10;51.13;95486.03;5095150;28;20040;-67
2023/04/14 13:38:21;;;;;;;;;;;;;;;19.02;50.30;95515.00;5095085;28;20491;-67
2023/04/14 13:40:54;;;;;;;17.30;4.88;;;;;;;18.65;50.84;95509.31;5090296;28;20048;-66
2023/04/14 13:43:22;;;;;;;21.02;4.80;;;;;;;18.57;50.99;95511.78;5074909;28;20044;-66
2023/04/14 13:45:50;;;;;;;17.85;4.63;;;;;;;18.52;50.68;95501.63;5074442;28;20127;-65
2023/04/14 13:48:19;;;;;;;17.73;5.38;;;;;;;18.55;50.96;95517.22;5074756;28;20049;-65
2023/04/14 13:50:47;;;;;;;18.40;4.38;;;;;;;18.55;50.88;95500.50;5074721;28;20410;-67
2023/04/14 13:53:15;;;;;;;15.93;4.40;;;;;;;18.56;50.71;95495.06;5074864;28;20048;-66
2023/04/14 13:55:43;;;;;;;15.88;4.38;;;;;;;18.51;50.95;95501.75;5074741;28;20052;-65
2023/04/14 13:58:12;;;;;;;12.75;4.20;;;;;;;18.54;51.85;95486.41;5074882;28;20379;-66
2023/04/14 14:00:40;;;;;;;23.20;4.05;;;;;;;18.69;51.63;95484.25;5074792;28;20045;-66
2023/04/14 14:03:11;;;;;;;14.60;3.78;;;;;;;18.76;51.46;95473.97;5074729;28;20045;-66
2023/04/14 14:05:42;;;;;;;17.85;4.28;;;;;;;18.86;51.64;95486.38;5074486;28;20049;-66
2023/04/14 14:08:10;;;;;;;13.90;4.72;;;;;;;18.91;50.04;95482.34;5074375;28;20106;-66
2023/04/14 14:10:37;;;;;;;17.95;4.60;;;;;;;19.00;50.79;95493.94;5073518;28;20049;-67